LOT24L EPWA-EBBR
Flight info
| Callsign | LOT24L |
|---|---|
| Flight time | N/A |
| Altitude | 36000 |
| Route | LOLSI DCT DIBLO DCT INDIG DCT GOVEN DCT MAG DCT TOLGI DCT ABAMI Z717 NEREL T855 BATTY |
| Aircraft | B738/M-SDE2E3FGHIRWXY/LB1 |
Departure
| Time | 2026-05-07 09:12 |
|---|---|
| Airport | Warsaw Chopin Airport (EPWA) |
Arrival
| Time | N/A |
|---|---|
| Airport | Brussels Airport (EBBR) |
| Time | Latitude | Longitude | Altitude | Speed | Heading |
|---|---|---|---|---|---|
| 2026-05-07 08:43 | 52.16910 | 20.97209 | 359 ft | 0 kts | 73° |
| 2026-05-07 09:00 | 52.16909 | 20.97203 | 351 ft | 2 kts | 73° |
| 2026-05-07 09:00 | 52.16905 | 20.97182 | 361 ft | 2 kts | 72° |
| 2026-05-07 09:00 | 52.16901 | 20.97161 | 361 ft | 2 kts | 71° |
| 2026-05-07 09:01 | 52.16897 | 20.97140 | 359 ft | 2 kts | 78° |
| 2026-05-07 09:01 | 52.16895 | 20.97119 | 360 ft | 2 kts | 83° |
| 2026-05-07 09:01 | 52.16893 | 20.97097 | 358 ft | 2 kts | 90° |
| 2026-05-07 09:01 | 52.16894 | 20.97076 | 356 ft | 2 kts | 121° |
| 2026-05-07 09:02 | 52.16902 | 20.97060 | 358 ft | 0 kts | 146° |
| 2026-05-07 09:06 | 52.16898 | 20.97065 | 358 ft | 2 kts | 146° |
| 2026-05-07 09:06 | 52.16875 | 20.97086 | 355 ft | 6 kts | 151° |
| 2026-05-07 09:07 | 52.16829 | 20.97128 | 354 ft | 9 kts | 151° |
| 2026-05-07 09:07 | 52.16762 | 20.97188 | 354 ft | 13 kts | 151° |
| 2026-05-07 09:07 | 52.16676 | 20.97264 | 351 ft | 15 kts | 151° |
| 2026-05-07 09:07 | 52.16587 | 20.97348 | 358 ft | 15 kts | 136° |
| 2026-05-07 09:08 | 52.16542 | 20.97489 | 357 ft | 14 kts | 114° |
| 2026-05-07 09:08 | 52.16503 | 20.97630 | 356 ft | 13 kts | 115° |
| 2026-05-07 09:08 | 52.16465 | 20.97764 | 354 ft | 13 kts | 115° |
| 2026-05-07 09:08 | 52.16427 | 20.97894 | 354 ft | 13 kts | 115° |
| 2026-05-07 09:09 | 52.16391 | 20.98022 | 356 ft | 12 kts | 113° |
| 2026-05-07 09:09 | 52.16357 | 20.98147 | 358 ft | 12 kts | 113° |
| 2026-05-07 09:09 | 52.16325 | 20.98269 | 356 ft | 12 kts | 113° |
| 2026-05-07 09:09 | 52.16267 | 20.98345 | 353 ft | 12 kts | 187° |
| 2026-05-07 09:10 | 52.16249 | 20.98335 | 351 ft | 0 kts | 202° |
| 2026-05-07 09:10 | 52.16247 | 20.98333 | 351 ft | 1 kts | 202° |
| 2026-05-07 09:10 | 52.16223 | 20.98317 | 353 ft | 7 kts | 203° |
| 2026-05-07 09:11 | 52.16165 | 20.98228 | 354 ft | 14 kts | 254° |
| 2026-05-07 09:11 | 52.16177 | 20.98126 | 355 ft | 0 kts | 295° |
| 2026-05-07 09:11 | 52.16177 | 20.98125 | 355 ft | 1 kts | 295° |
| 2026-05-07 09:11 | 52.16259 | 20.97837 | 356 ft | 63 kts | 295° |
| 2026-05-07 09:12 | 52.16537 | 20.96840 | 354 ft | 128 kts | 294° |
| 2026-05-07 09:12 | 52.16972 | 20.95270 | 480 ft | 169 kts | 293° |
| 2026-05-07 09:12 | 52.17431 | 20.93513 | 1364 ft | 164 kts | 294° |
| 2026-05-07 09:12 | 52.17875 | 20.91805 | 2174 ft | 167 kts | 291° |
| 2026-05-07 09:13 | 52.18323 | 20.89895 | 2555 ft | 195 kts | 279° |
| 2026-05-07 09:13 | 52.18277 | 20.87603 | 2874 ft | 214 kts | 261° |
| 2026-05-07 09:13 | 52.18058 | 20.85090 | 3227 ft | 231 kts | 262° |
| 2026-05-07 09:13 | 52.17932 | 20.82380 | 3528 ft | 256 kts | 271° |
| 2026-05-07 09:14 | 52.18300 | 20.79373 | 3865 ft | 279 kts | 285° |
| 2026-05-07 09:14 | 52.18824 | 20.76393 | 4938 ft | 267 kts | 283° |
| 2026-05-07 09:14 | 52.19288 | 20.73497 | 5903 ft | 264 kts | 281° |
| 2026-05-07 09:14 | 52.19623 | 20.70555 | 6751 ft | 265 kts | 266° |
| 2026-05-07 09:15 | 52.19208 | 20.67663 | 7557 ft | 263 kts | 249° |
| 2026-05-07 09:15 | 52.18573 | 20.64847 | 8403 ft | 266 kts | 249° |
| 2026-05-07 09:15 | 52.17932 | 20.62002 | 9225 ft | 269 kts | 249° |
| 2026-05-07 09:15 | 52.17287 | 20.59119 | 10037 ft | 271 kts | 249° |
| 2026-05-07 09:16 | 52.16642 | 20.56225 | 10578 ft | 284 kts | 249° |
| 2026-05-07 09:16 | 52.15940 | 20.53073 | 10735 ft | 308 kts | 249° |
| 2026-05-07 09:16 | 52.15324 | 20.49618 | 11073 ft | 327 kts | 262° |
| 2026-05-07 09:16 | 52.15365 | 20.45872 | 11732 ft | 334 kts | 272° |
| 2026-05-07 09:17 | 52.15537 | 20.42086 | 12497 ft | 336 kts | 272° |
| 2026-05-07 09:17 | 52.15713 | 20.38268 | 13264 ft | 340 kts | 271° |
| 2026-05-07 09:17 | 52.15885 | 20.34403 | 13956 ft | 343 kts | 271° |
| 2026-05-07 09:17 | 52.16051 | 20.30503 | 14611 ft | 347 kts | 271° |
| 2026-05-07 09:18 | 52.16213 | 20.26567 | 15268 ft | 350 kts | 271° |
| 2026-05-07 09:18 | 52.16371 | 20.22593 | 15925 ft | 353 kts | 271° |
| 2026-05-07 09:18 | 52.16528 | 20.18583 | 16567 ft | 356 kts | 270° |
| 2026-05-07 09:18 | 52.16683 | 20.14536 | 17206 ft | 360 kts | 270° |
| 2026-05-07 09:19 | 52.16838 | 20.10458 | 17844 ft | 363 kts | 270° |
| 2026-05-07 09:19 | 52.16994 | 20.06324 | 18468 ft | 366 kts | 270° |
| 2026-05-07 09:19 | 52.17148 | 20.02183 | 19071 ft | 368 kts | 270° |
| 2026-05-07 09:19 | 52.17304 | 19.98013 | 19661 ft | 370 kts | 270° |
| 2026-05-07 09:20 | 52.17458 | 19.93805 | 20236 ft | 374 kts | 270° |
| 2026-05-07 09:20 | 52.17611 | 19.89552 | 20857 ft | 378 kts | 270° |
| 2026-05-07 09:20 | 52.17661 | 19.85325 | 21412 ft | 377 kts | 262° |
| 2026-05-07 09:20 | 52.17340 | 19.81040 | 21958 ft | 377 kts | 258° |
| 2026-05-07 09:21 | 52.16929 | 19.76861 | 22510 ft | 381 kts | 257° |
| 2026-05-07 09:21 | 52.16498 | 19.72587 | 23014 ft | 384 kts | 257° |
| 2026-05-07 09:21 | 52.16077 | 19.68267 | 23526 ft | 386 kts | 258° |
| 2026-05-07 09:21 | 52.15670 | 19.63933 | 23952 ft | 388 kts | 258° |
| 2026-05-07 09:22 | 52.15273 | 19.59576 | 24388 ft | 390 kts | 258° |
| 2026-05-07 09:22 | 52.14879 | 19.55202 | 24814 ft | 391 kts | 258° |
| 2026-05-07 09:22 | 52.14485 | 19.50808 | 25227 ft | 393 kts | 258° |
| 2026-05-07 09:22 | 52.14088 | 19.46395 | 25633 ft | 395 kts | 258° |
| 2026-05-07 09:23 | 52.13688 | 19.41962 | 26029 ft | 397 kts | 258° |
| 2026-05-07 09:23 | 52.13283 | 19.37501 | 26424 ft | 398 kts | 257° |
| 2026-05-07 09:23 | 52.12874 | 19.33035 | 26823 ft | 400 kts | 257° |
| 2026-05-07 09:23 | 52.12462 | 19.28606 | 27205 ft | 401 kts | 257° |
| 2026-05-07 09:24 | 52.12039 | 19.24116 | 27585 ft | 403 kts | 257° |
| 2026-05-07 09:24 | 52.11612 | 19.19598 | 27989 ft | 405 kts | 257° |
| 2026-05-07 09:24 | 52.11181 | 19.15063 | 28338 ft | 406 kts | 257° |
| 2026-05-07 09:24 | 52.10748 | 19.10510 | 28683 ft | 408 kts | 257° |
| 2026-05-07 09:25 | 52.10312 | 19.05940 | 29021 ft | 410 kts | 257° |
| 2026-05-07 09:25 | 52.09873 | 19.01355 | 29347 ft | 411 kts | 256° |
| 2026-05-07 09:25 | 52.09430 | 18.96751 | 29707 ft | 413 kts | 256° |
| 2026-05-07 09:25 | 52.08985 | 18.92139 | 30048 ft | 413 kts | 256° |
| 2026-05-07 09:26 | 52.08537 | 18.87514 | 30355 ft | 413 kts | 256° |
| 2026-05-07 09:26 | 52.08090 | 18.82909 | 30715 ft | 412 kts | 256° |
| 2026-05-07 09:26 | 52.07643 | 18.78324 | 31115 ft | 410 kts | 256° |
| 2026-05-07 09:26 | 52.07195 | 18.73757 | 31472 ft | 409 kts | 256° |
| 2026-05-07 09:27 | 52.06746 | 18.69199 | 31796 ft | 408 kts | 256° |
| 2026-05-07 09:27 | 52.06297 | 18.64661 | 32128 ft | 407 kts | 255° |
| 2026-05-07 09:27 | 52.05394 | 18.55590 | 32778 ft | 405 kts | 255° |
| 2026-05-07 09:28 | 52.04941 | 18.51073 | 33088 ft | 405 kts | 255° |
| 2026-05-07 09:28 | 52.04494 | 18.46625 | 33403 ft | 404 kts | 255° |
| 2026-05-07 09:28 | 52.04034 | 18.42078 | 33771 ft | 403 kts | 255° |
| 2026-05-07 09:28 | 52.03580 | 18.37590 | 34038 ft | 403 kts | 255° |
| 2026-05-07 09:29 | 52.03127 | 18.33150 | 34233 ft | 403 kts | 255° |
| 2026-05-07 09:29 | 52.02668 | 18.28658 | 34408 ft | 405 kts | 255° |
| 2026-05-07 09:29 | 52.02205 | 18.24149 | 34620 ft | 405 kts | 256° |
| 2026-05-07 09:29 | 52.01741 | 18.19639 | 34842 ft | 405 kts | 256° |
| 2026-05-07 09:30 | 52.01276 | 18.15126 | 35031 ft | 406 kts | 256° |
| 2026-05-07 09:30 | 52.00808 | 18.10608 | 35228 ft | 406 kts | 256° |
| 2026-05-07 09:30 | 52.00336 | 18.06076 | 35410 ft | 407 kts | 256° |
| 2026-05-07 09:30 | 51.99881 | 18.01543 | 35603 ft | 408 kts | 259° |
| 2026-05-07 09:31 | 51.99724 | 17.96918 | 35773 ft | 414 kts | 268° |